Time;durP1;ratioP1;P1;durP2;ratioP2;P2;SDS_P1;SDS_P2;PMS_P1;PMS_P2;Temp;Humidity;BMP_temperature;BMP_pressure;BME280_temperature;BME280_humidity;BME280_pressure;Samples;Min_cycle;Max_cycle;Signal;HPM_P1;HPM_P2
2023/07/31 00:01:35;;;;;;;;;;;;;;;18.93;97.71;100200.44;5051527;28;20046;-77
2023/07/31 00:04:04;;;;;;;4.93;1.52;;;;;;;18.89;97.02;100196.28;5056310;28;19904;-76
2023/07/31 00:06:32;;;;;;;7.50;2.13;;;;;;;18.77;99.62;100180.38;5066685;28;20041;-76
2023/07/31 00:09:00;;;;;;;4.90;1.70;;;;;;;18.71;100.00;100186.28;5071924;28;20053;-76
2023/07/31 00:11:29;;;;;;;6.10;1.98;;;;;;;18.73;100.00;100190.53;5067637;28;20045;-77
2023/07/31 00:13:59;;;;;;;3.95;1.38;;;;;;;18.73;100.00;100189.69;5069263;28;20045;-76
2023/07/31 00:16:28;;;;;;;3.22;1.77;;;;;;;18.74;99.66;100189.53;5047195;28;20028;-77
2023/07/31 00:18:56;;;;;;;3.38;1.52;;;;;;;18.69;100.00;100189.09;5062160;28;20058;-77
2023/07/31 00:21:25;;;;;;;3.42;1.40;;;;;;;18.62;100.00;100173.63;5082222;28;20065;-76
2023/07/31 00:23:56;;;;;;;6.50;1.80;;;;;;;18.66;100.00;100188.50;5067491;28;20048;-77
2023/07/31 00:26:23;;;;;;;6.30;1.95;;;;;;;18.20;100.00;100126.13;5026982;28;20047;-77
2023/07/31 00:28:51;;;;;;;5.65;1.70;;;;;;;18.46;100.00;100182.06;5054419;28;20033;-77
2023/07/31 00:31:20;;;;;;;5.85;2.03;;;;;;;18.50;100.00;100187.06;5027720;28;20033;-77
2023/07/31 00:33:52;;;;;;;3.95;1.67;;;;;;;18.49;100.00;100181.81;5048361;28;20111;-76
2023/07/31 00:36:21;;;;;;;4.72;1.80;;;;;;;18.53;100.00;100181.44;5041734;28;20056;-77
2023/07/31 00:38:50;;;;;;;3.47;1.60;;;;;;;18.56;100.00;100175.84;5034813;28;20041;-76
2023/07/31 00:41:18;;;;;;;4.38;1.60;;;;;;;18.51;100.00;100177.19;5043812;28;20052;-76
2023/07/31 00:43:47;;;;;;;4.88;1.95;;;;;;;18.49;100.00;100171.94;5049957;28;20052;-76
2023/07/31 00:46:15;;;;;;;7.70;2.03;;;;;;;18.45;100.00;100178.53;5050042;28;20054;-77
2023/07/31 00:48:44;;;;;;;5.28;1.92;;;;;;;18.33;100.00;100166.16;5048501;28;20045;-77
2023/07/31 00:51:13;;;;;;;7.18;1.85;;;;;;;18.19;100.00;100158.41;5031891;28;20101;-77
2023/07/31 00:53:42;;;;;;;6.20;1.63;;;;;;;18.16;100.00;100166.69;5050376;28;20415;-76
2023/07/31 00:56:12;;;;;;;5.43;1.52;;;;;;;18.18;100.00;100162.91;5038210;28;20051;-77
2023/07/31 00:58:43;;;;;;;7.63;1.88;;;;;;;18.18;100.00;100170.09;5050336;28;20060;-78
2023/07/31 01:01:11;;;;;;;5.15;1.92;;;;;;;18.08;100.00;100167.34;5052430;28;20044;-78
2023/07/31 01:03:39;;;;;;;3.60;1.70;;;;;;;18.09;100.00;100169.03;5052830;28;20504;-77
2023/07/31 01:06:23;;;;;;;5.35;1.67;;;;;;;18.02;100.00;100151.75;5028467;28;20041;-77
2023/07/31 01:09:03;;;;;;;6.28;1.80;;;;;;;18.04;100.00;100159.66;5041559;28;20087;-77
2023/07/31 01:11:34;;;;;;;4.90;1.88;;;;;;;18.12;100.00;100162.56;5050155;28;20094;-77
2023/07/31 01:14:03;;;;;;;5.93;1.98;;;;;;;18.15;100.00;100159.63;5029687;28;20048;-77
2023/07/31 01:16:31;;;;;;;4.20;1.50;;;;;;;18.14;100.00;100150.75;5041862;28;20041;-78
2023/07/31 01:19:00;;;;;;;6.55;2.10;;;;;;;18.15;100.00;100152.44;5032792;28;20055;-76
2023/07/31 01:21:58;;;;;;;4.15;1.67;;;;;;;18.04;100.00;100132.88;5049711;28;20493;-76
2023/07/31 01:24:36;;;;;;;4.25;1.73;;;;;;;18.14;100.00;100160.59;5018028;28;20367;-77
2023/07/31 01:27:10;;;;;;;5.63;1.90;;;;;;;18.16;100.00;100155.97;5036822;28;20056;-77
2023/07/31 01:29:43;;;;;;;3.88;1.92;;;;;;;18.15;100.00;100140.88;5033045;28;20041;-77
2023/07/31 01:32:12;;;;;;;5.25;2.00;;;;;;;18.06;100.00;100131.78;5033718;28;20109;-77
2023/07/31 01:34:42;;;;;;;5.78;1.80;;;;;;;18.18;100.00;100145.97;5046330;28;20041;-77
2023/07/31 01:37:10;;;;;;;3.67;1.70;;;;;;;18.16;100.00;100148.78;5038993;28;20041;-77
2023/07/31 01:39:39;;;;;;;4.93;2.22;;;;;;;18.02;100.00;100118.75;5029245;28;20136;-76
2023/07/31 01:42:09;;;;;;;5.07;1.90;;;;;;;18.00;100.00;100104.63;5047639;28;20230;-78
2023/07/31 01:44:37;;;;;;;6.65;1.90;;;;;;;18.18;100.00;100129.91;5049714;28;20045;-78
2023/07/31 01:47:06;;;;;;;4.45;1.65;;;;;;;18.18;100.00;100124.53;5038584;28;20528;-77
2023/07/31 01:49:35;;;;;;;4.28;1.85;;;;;;;18.18;100.00;100122.72;5047626;28;20045;-76
2023/07/31 01:52:04;;;;;;;6.00;1.75;;;;;;;18.19;100.00;100119.06;5051720;28;20041;-76
2023/07/31 01:54:33;;;;;;;6.40;1.85;;;;;;;18.17;100.00;100130.88;5044708;28;20053;-77
2023/07/31 01:57:01;;;;;;;4.53;1.83;;;;;;;18.22;99.86;100126.84;5047599;28;20497;-77
2023/07/31 01:59:30;;;;;;;5.68;1.92;;;;;;;18.17;97.83;100112.97;5051084;28;20052;-77
2023/07/31 02:02:00;;;;;;;3.63;1.73;;;;;;;18.19;97.84;100094.09;5056102;28;20470;-77
2023/07/31 02:04:28;;;;;;;5.60;2.03;;;;;;;18.34;97.46;100111.56;5062337;28;20041;-77
2023/07/31 02:06:56;;;;;;;6.65;2.25;;;;;;;18.39;97.96;100105.84;5044864;28;20536;-77
2023/07/31 02:09:24;;;;;;;5.57;1.85;;;;;;;18.47;97.03;100108.72;5058513;28;20049;-77
2023/07/31 02:11:53;;;;;;;4.90;1.73;;;;;;;18.45;96.15;100113.34;5041972;28;20066;-76
2023/07/31 02:14:21;;;;;;;4.15;2.05;;;;;;;18.42;94.38;100103.72;5056237;28;20083;-77
2023/07/31 02:16:50;;;;;;;3.70;1.90;;;;;;;18.50;93.56;100113.81;5020335;28;20155;-77
2023/07/31 02:19:19;;;;;;;5.13;1.73;;;;;;;18.55;92.99;100103.56;5051382;28;20713;-77
2023/07/31 02:21:47;;;;;;;4.47;2.10;;;;;;;18.60;92.78;100109.41;5032063;28;20052;-77
2023/07/31 02:24:19;;;;;;;4.28;1.92;;;;;;;18.60;91.85;100112.09;5048082;28;20052;-77
2023/07/31 02:26:48;;;;;;;8.65;2.22;;;;;;;18.61;91.55;100105.75;5041837;28;20111;-77
2023/07/31 02:29:16;;;;;;;4.30;2.03;;;;;;;18.55;91.14;100082.09;5033289;28;20057;-77
2023/07/31 02:31:45;;;;;;;7.30;2.08;;;;;;;18.67;91.86;100088.28;5049138;28;20615;-77
2023/07/31 02:34:17;;;;;;;7.90;2.00;;;;;;;18.63;90.25;100094.88;5068285;28;20165;-77
2023/07/31 02:36:47;;;;;;;5.35;2.03;;;;;;;18.63;89.99;100100.25;5027042;28;20438;-77
2023/07/31 02:39:14;;;;;;;5.38;1.63;;;;;;;18.60;90.26;100103.19;5052516;28;20056;-77
2023/07/31 02:41:44;;;;;;;4.75;2.05;;;;;;;18.57;90.94;100106.97;5048684;28;20505;-77
2023/07/31 02:44:14;;;;;;;4.50;2.08;;;;;;;18.60;91.37;100105.88;5032791;28;20049;-77
2023/07/31 02:46:44;;;;;;;5.00;1.90;;;;;;;18.61;90.80;100110.25;5038945;28;20049;-77
2023/07/31 02:49:12;;;;;;;4.78;1.75;;;;;;;18.61;91.07;100116.47;5019961;28;20047;-77
2023/07/31 02:51:45;;;;;;;8.55;2.05;;;;;;;18.61;90.60;100105.75;5032713;28;20098;-79
2023/07/31 02:54:13;;;;;;;5.32;2.25;;;;;;;18.58;90.59;100106.84;5060417;28;20524;-77
2023/07/31 02:56:42;;;;;;;9.70;2.40;;;;;;;18.55;89.86;100103.56;5036659;28;20552;-76
2023/07/31 02:59:10;;;;;;;5.78;2.22;;;;;;;18.50;90.06;100109.31;5059556;28;20049;-77
2023/07/31 03:01:39;;;;;;;5.05;1.80;;;;;;;18.47;90.01;100104.19;5047909;28;20045;-76
2023/07/31 03:04:08;;;;;;;7.53;2.30;;;;;;;18.52;90.50;100118.06;5035692;28;20079;-76
2023/07/31 03:06:36;;;;;;;5.47;2.08;;;;;;;18.48;90.65;100105.91;5042163;28;20059;-76
2023/07/31 03:09:07;;;;;;;4.38;2.00;;;;;;;18.37;91.04;100078.31;5034005;28;20061;-76
2023/07/31 03:11:35;;;;;;;7.05;2.30;;;;;;;18.56;91.91;100097.22;5046861;28;20057;-77
2023/07/31 03:14:02;;;;;;;5.47;2.03;;;;;;;18.63;91.07;100105.59;5052103;28;20049;-76
2023/07/31 03:16:31;;;;;;;5.30;2.72;;;;;;;18.55;91.61;100107.09;5041121;28;20037;-76
2023/07/31 03:18:59;;;;;;;6.25;2.30;;;;;;;18.43;93.06;100091.16;5045676;28;20056;-76
2023/07/31 03:21:27;;;;;;;6.18;2.53;;;;;;;18.56;94.25;100108.81;5051988;28;20405;-76
2023/07/31 03:23:54;;;;;;;9.45;2.38;;;;;;;18.56;93.64;100106.13;5039285;28;20417;-76
2023/07/31 03:26:24;;;;;;;3.67;1.90;;;;;;;18.58;94.62;100105.97;5041203;28;20131;-76
2023/07/31 03:28:52;;;;;;;6.77;2.30;;;;;;;18.67;94.11;100107.91;5039158;28;20036;-76
2023/07/31 03:31:21;;;;;;;7.15;2.10;;;;;;;18.59;94.30;100096.97;5057239;28;20044;-77
2023/07/31 03:33:49;;;;;;;6.03;2.20;;;;;;;18.54;95.35;100100.03;5053375;28;20045;-77
2023/07/31 03:36:19;;;;;;;8.68;2.72;;;;;;;18.44;96.81;100104.44;5039350;28;20112;-77
2023/07/31 03:38:49;;;;;;;5.57;2.30;;;;;;;18.39;97.39;100105.84;5031730;28;20390;-77
2023/07/31 03:41:17;;;;;;;;;;;;;;;18.40;98.20;100113.75;5018344;28;20045;-77
2023/07/31 03:43:51;;;;;;;6.13;2.10;;;;;;;18.41;99.07;100107.41;5048133;28;19921;-79
2023/07/31 03:46:19;;;;;;;4.03;2.13;;;;;;;18.42;98.66;100108.22;5048497;28;20072;-78
2023/07/31 03:48:49;;;;;;;9.63;2.75;;;;;;;18.45;99.60;100107.97;5036413;28;20149;-78
2023/07/31 03:51:17;;;;;;;6.13;2.40;;;;;;;18.44;100.00;100109.81;5043738;28;20049;-78
2023/07/31 03:53:46;;;;;;;4.20;2.25;;;;;;;18.46;99.62;100107.84;5056773;28;20037;-76
2023/07/31 03:56:14;;;;;;;5.60;2.30;;;;;;;18.37;99.49;100092.56;5047583;28;20045;-77
2023/07/31 03:58:43;;;;;;;6.78;2.50;;;;;;;18.47;99.45;100108.72;5052700;28;20053;-76
2023/07/31 04:01:13;;;;;;;5.85;2.40;;;;;;;18.42;100.00;100105.56;5047488;28;20044;-76
2023/07/31 04:03:41;;;;;;;5.73;2.40;;;;;;;18.45;99.82;100106.16;5047644;28;20056;-75
2023/07/31 04:06:10;;;;;;;7.68;2.40;;;;;;;18.41;100.00;100103.88;5055057;28;20140;-79
2023/07/31 04:08:38;;;;;;;6.72;2.42;;;;;;;18.34;100.00;100103.53;5047558;28;20041;-76
2023/07/31 04:11:07;;;;;;;6.72;2.30;;;;;;;18.37;99.97;100100.59;5042808;28;20049;-78
2023/07/31 04:13:35;;;;;;;8.63;2.50;;;;;;;18.29;100.00;100103.06;5053031;28;20048;-77
2023/07/31 04:16:04;;;;;;;6.03;2.35;;;;;;;18.23;100.00;100084.81;5040708;28;20052;-79
2023/07/31 04:18:35;;;;;;;3.88;2.22;;;;;;;18.19;100.00;100083.38;5045369;28;20140;-78
2023/07/31 04:21:03;;;;;;;6.07;2.00;;;;;;;18.19;100.00;100070.81;5058252;28;20451;-78
2023/07/31 04:23:32;;;;;;;8.88;2.80;;;;;;;18.30;100.00;100086.00;5052721;28;20084;-78
2023/07/31 04:26:04;;;;;;;6.78;2.70;;;;;;;18.34;100.00;100084.75;5041469;28;20040;-77
2023/07/31 04:28:32;;;;;;;;;;;;;;;18.29;100.00;100070.88;5058873;28;20048;-78
2023/07/31 04:31:03;;;;;;;3.15;2.05;;;;;;;18.30;100.00;100077.94;5050275;28;19921;-77
2023/07/31 04:33:31;;;;;;;7.22;2.38;;;;;;;18.32;100.00;100073.31;5054278;28;20052;-79
2023/07/31 04:36:01;;;;;;;4.60;2.05;;;;;;;18.30;100.00;100074.41;5056586;28;20091;-77
2023/07/31 04:38:29;;;;;;;5.38;2.33;;;;;;;18.34;99.93;100068.69;5061408;28;20051;-80
2023/07/31 04:40:56;;;;;;;4.78;2.38;;;;;;;18.38;99.98;100066.59;5070514;28;20041;-78
2023/07/31 04:43:31;;;;;;;8.23;2.50;;;;;;;18.30;99.15;100047.63;5050920;28;20122;-80
2023/07/31 04:45:58;;;;;;;6.65;2.55;;;;;;;18.26;99.49;100030.94;5050427;28;20069;-77
2023/07/31 04:48:26;;;;;;;6.18;2.20;;;;;;;18.47;99.52;100066.66;5038924;28;20049;-78
2023/07/31 04:50:57;;;;;;;6.80;2.55;;;;;;;18.47;98.97;100044.34;5055395;28;20045;-77
2023/07/31 04:53:27;;;;;;;5.72;2.50;;;;;;;18.60;98.97;100062.97;5028019;28;20049;-78
2023/07/31 04:55:55;;;;;;;8.63;2.60;;;;;;;18.65;98.21;100071.47;5019190;28;20049;-79
2023/07/31 04:58:23;;;;;;;7.38;2.40;;;;;;;18.59;96.67;100037.97;5047987;28;20044;-79
2023/07/31 05:00:51;;;;;;;4.80;2.40;;;;;;;18.73;96.52;100069.81;5048954;28;20053;-78
2023/07/31 05:03:20;;;;;;;7.00;2.55;;;;;;;18.69;96.38;100070.22;5056149;28;20053;-78
2023/07/31 05:05:48;;;;;;;5.18;2.20;;;;;;;18.63;96.30;100060.03;5049898;28;20045;-78
2023/07/31 05:08:17;;;;;;;6.22;2.58;;;;;;;18.67;96.75;100067.69;5021623;28;20044;-79
2023/07/31 05:10:47;;;;;;;6.00;2.30;;;;;;;18.65;95.21;100037.47;5055402;28;20071;-77
2023/07/31 05:13:14;;;;;;;8.65;2.20;;;;;;;18.79;95.08;100071.97;5041650;28;20103;-78
2023/07/31 05:15:43;;;;;;;3.58;2.10;;;;;;;18.79;94.63;100063.09;5054140;28;20067;-78
2023/07/31 05:18:12;;;;;;;7.13;2.30;;;;;;;18.83;94.33;100051.97;5043839;28;20041;-77
2023/07/31 05:20:40;;;;;;;5.95;2.53;;;;;;;18.96;94.35;100070.53;5055400;28;20505;-77
2023/07/31 05:23:08;;;;;;;6.40;2.38;;;;;;;18.87;97.67;100057.94;5052664;28;20052;-77
2023/07/31 05:25:36;;;;;;;5.75;2.78;;;;;;;18.64;99.14;100051.00;5062696;28;20572;-78
2023/07/31 05:28:06;;;;;;;6.35;3.08;;;;;;;18.66;100.00;100073.16;5038596;28;20362;-77
2023/07/31 05:30:35;;;;;;;5.95;2.58;;;;;;;18.60;100.00;100071.00;5052790;28;20103;-78
2023/07/31 05:33:03;;;;;;;4.32;2.42;;;;;;;18.70;98.98;100074.63;5041539;28;20041;-77
2023/07/31 05:35:31;;;;;;;5.40;2.50;;;;;;;18.68;98.49;100060.47;5052934;28;20064;-79
2023/07/31 05:37:59;;;;;;;6.00;2.58;;;;;;;18.63;98.37;100043.94;5045941;28;20472;-77
2023/07/31 05:40:28;;;;;;;5.82;2.35;;;;;;;18.80;98.58;100068.31;5045954;28;20049;-78
2023/07/31 05:42:56;;;;;;;6.05;2.35;;;;;;;18.79;98.67;100052.34;5028556;28;20045;-77
2023/07/31 05:45:26;;;;;;;5.50;2.53;;;;;;;18.84;100.00;100051.00;5055291;28;20049;-79
2023/07/31 05:47:54;;;;;;;7.78;2.80;;;;;;;18.91;100.00;100056.66;5048973;28;20033;-78
2023/07/31 05:50:22;;;;;;;7.78;3.00;;;;;;;18.79;100.00;100055.03;5046734;28;20076;-78
2023/07/31 05:52:50;;;;;;;5.03;2.92;;;;;;;18.76;100.00;100048.09;5049816;28;20041;-77
2023/07/31 05:55:19;;;;;;;8.63;3.00;;;;;;;18.87;100.00;100040.00;5050177;28;20049;-77
2023/07/31 05:57:47;;;;;;;7.38;2.92;;;;;;;18.98;100.00;100032.81;5028088;28;20060;-78
2023/07/31 06:00:16;;;;;;;7.13;2.60;;;;;;;19.13;96.95;100048.44;5048859;28;20052;-79
2023/07/31 06:02:49;;;;;;;6.68;2.95;;;;;;;19.37;99.24;100041.88;5043923;28;20045;-78
2023/07/31 06:05:20;;;;;;;6.20;2.80;;;;;;;19.45;95.57;100042.91;5063132;28;20041;-79
2023/07/31 06:07:48;;;;;;;6.20;2.63;;;;;;;19.44;94.42;100043.03;5050948;28;20153;-79
2023/07/31 06:10:16;;;;;;;6.82;3.10;;;;;;;19.54;94.04;100041.25;5030389;28;20630;-79
2023/07/31 06:12:45;;;;;;;7.68;2.72;;;;;;;19.58;92.54;100043.53;5057665;28;20044;-80
2023/07/31 06:15:21;;;;;;;5.97;2.33;;;;;;;19.61;90.96;100037.03;5049991;28;20051;-78
2023/07/31 06:17:50;;;;;;;10.05;2.78;;;;;;;19.64;90.71;100036.75;5042774;28;20041;-79
2023/07/31 06:20:18;;;;;;;9.07;2.60;;;;;;;19.51;89.03;100012.00;5048543;28;20107;-80
2023/07/31 06:22:46;;;;;;;6.80;2.50;;;;;;;19.70;88.36;100036.19;5067627;28;20486;-79
2023/07/31 06:25:14;;;;;;;6.10;2.45;;;;;;;19.70;87.95;100041.56;5056824;28;20098;-78
2023/07/31 06:27:43;;;;;;;6.57;2.42;;;;;;;19.73;86.01;100043.97;5059275;28;20089;-81
2023/07/31 06:30:14;;;;;;;7.05;2.60;;;;;;;19.72;86.68;100055.72;5031509;28;20041;-79
2023/07/31 06:32:42;;;;;;;5.00;2.67;;;;;;;19.63;88.16;100039.59;5064409;28;20047;-79
2023/07/31 06:35:14;;;;;;;5.22;2.70;;;;;;;19.75;86.41;100028.56;5027539;28;20045;-79
2023/07/31 06:37:44;;;;;;;6.00;2.63;;;;;;;19.92;85.23;100038.63;5054430;28;20161;-76
2023/07/31 06:40:12;;;;;;;6.90;2.40;;;;;;;19.94;85.38;100043.88;5047081;28;20067;-79
2023/07/31 06:42:41;;;;;;;6.93;2.60;;;;;;;19.82;85.79;100048.53;5068884;28;20037;-80
2023/07/31 06:45:11;;;;;;;6.53;2.50;;;;;;;19.57;87.42;100052.56;5061052;28;20520;-78
2023/07/31 06:47:39;;;;;;;6.35;2.85;;;;;;;19.45;87.64;100031.31;5030811;28;20098;-81
2023/07/31 06:50:11;;;;;;;6.90;2.75;;;;;;;19.40;87.93;100052.34;5054774;28;20567;-79
2023/07/31 06:52:42;;;;;;;7.70;2.67;;;;;;;19.38;90.16;100043.56;5045863;28;20140;-78
2023/07/31 06:55:18;;;;;;;6.68;2.45;;;;;;;19.40;89.03;100057.72;5061623;28;20048;-78
2023/07/31 06:57:46;;;;;;;4.10;2.38;;;;;;;19.31;89.91;100058.53;5047466;28;20470;-79
2023/07/31 07:00:15;;;;;;;5.35;2.25;;;;;;;19.25;89.49;100052.72;5050843;28;20064;-79
2023/07/31 07:02:43;;;;;;;6.72;2.92;;;;;;;18.97;90.11;100005.16;5020153;28;20046;-79
2023/07/31 07:05:11;;;;;;;6.97;2.50;;;;;;;19.35;90.12;100039.34;5059206;28;20494;-76
2023/07/31 07:07:40;;;;;;;7.32;2.78;;;;;;;19.72;89.11;100046.78;5040982;28;20219;-78
2023/07/31 07:10:10;;;;;;;8.90;2.58;;;;;;;20.04;87.21;100058.16;5072487;28;20057;-77
2023/07/31 07:12:38;;;;;;;6.88;2.80;;;;;;;19.91;83.28;100036.09;5043584;28;20049;-78
2023/07/31 07:15:09;;;;;;;5.03;2.58;;;;;;;19.94;85.67;100046.56;5055870;28;20049;-79
2023/07/31 07:17:37;;;;;;;6.88;2.60;;;;;;;19.96;86.06;100039.22;5041562;28;20120;-78
2023/07/31 07:20:07;;;;;;;5.80;2.70;;;;;;;20.24;87.03;100021.38;5044196;28;20047;-79
2023/07/31 07:22:36;;;;;;;7.20;2.88;;;;;;;20.93;84.64;100032.75;5045207;28;20596;-79
2023/07/31 07:25:04;;;;;;;9.32;3.15;;;;;;;21.50;81.17;100016.47;5039070;28;20051;-79
2023/07/31 07:27:34;;;;;;;6.05;2.70;;;;;;;21.96;74.59;99991.19;5026135;28;20056;-82
2023/07/31 07:30:02;;;;;;;8.03;2.93;;;;;;;22.57;70.14;100009.22;5053364;28;20045;-79
2023/07/31 07:32:31;;;;;;;7.70;2.92;;;;;;;22.95;63.97;99999.91;5061575;28;20048;-78
2023/07/31 07:34:59;;;;;;;7.38;2.80;;;;;;;22.71;64.54;99996.00;5047362;28;20144;-78
2023/07/31 07:37:30;;;;;;;5.90;2.47;;;;;;;22.39;65.75;99975.03;5054034;28;20136;-78
2023/07/31 07:40:02;;;;;;;7.20;2.45;;;;;;;22.32;66.37;100006.38;5051483;28;20067;-78
2023/07/31 07:42:30;;;;;;;6.82;2.47;;;;;;;22.07;67.62;99999.06;5032275;28;20064;-78
2023/07/31 07:45:01;;;;;;;8.85;2.88;;;;;;;21.63;71.13;99988.16;5045738;28;20060;-78
2023/07/31 07:47:29;;;;;;;7.75;2.85;;;;;;;21.56;72.81;99980.88;5052175;28;20053;-79
2023/07/31 07:49:58;;;;;;;6.20;2.50;;;;;;;21.45;74.03;99989.13;5029762;28;20056;-78
2023/07/31 07:52:26;;;;;;;8.13;2.90;;;;;;;21.31;74.85;99963.56;5031734;28;20053;-78
2023/07/31 07:54:55;;;;;;;7.25;2.70;;;;;;;21.35;75.45;99990.06;5051312;28;20041;-77
2023/07/31 07:57:23;;;;;;;5.35;2.50;;;;;;;21.26;75.79;100001.72;5051778;28;20056;-78
2023/07/31 07:59:51;;;;;;;4.75;2.67;;;;;;;21.16;78.74;99997.34;5020089;28;20126;-78
2023/07/31 08:02:20;;;;;;;6.07;2.70;;;;;;;21.09;79.33;99991.72;5033509;28;20049;-77
2023/07/31 08:04:49;;;;;;;9.13;3.42;;;;;;;21.01;80.25;99997.00;5021797;28;20049;-78
2023/07/31 08:07:19;;;;;;;8.77;3.15;;;;;;;20.87;80.84;99997.47;5048019;28;20057;-77
2023/07/31 08:09:47;;;;;;;8.05;3.17;;;;;;;20.69;81.13;100004.63;5041612;28;20045;-78
2023/07/31 08:12:18;;;;;;;5.65;2.65;;;;;;;20.49;83.98;99990.34;5055059;28;20056;-79
2023/07/31 08:14:46;;;;;;;6.95;2.60;;;;;;;20.55;83.03;99969.13;5053326;28;20042;-77
2023/07/31 08:17:14;;;;;;;6.55;3.13;;;;;;;20.65;83.01;99990.59;5066287;28;20044;-77
2023/07/31 08:19:46;;;;;;;11.38;2.60;;;;;;;20.62;84.88;99980.13;5057393;28;20493;-76
2023/07/31 08:22:14;;;;;;;6.10;3.17;;;;;;;20.81;84.18;99977.38;5060253;28;20053;-76
2023/07/31 08:24:42;;;;;;;5.60;2.38;;;;;;;21.02;82.20;99982.53;5058341;28;20140;-79
2023/07/31 08:27:11;;;;;;;8.57;2.47;;;;;;;21.20;80.71;99958.41;5052044;28;20044;-78
2023/07/31 08:29:39;;;;;;;6.38;2.83;;;;;;;21.33;80.93;99967.81;5041658;28;20049;-78
2023/07/31 08:32:08;;;;;;;6.30;2.75;;;;;;;21.54;80.71;99953.22;5034616;28;20068;-78
2023/07/31 08:34:36;;;;;;;7.70;2.83;;;;;;;21.80;75.51;99932.56;5051137;28;20047;-79
2023/07/31 08:37:05;;;;;;;5.75;2.72;;;;;;;22.10;75.13;99965.53;5052278;28;20055;-78
2023/07/31 08:39:33;;;;;;;7.10;2.45;;;;;;;22.30;74.47;99958.97;5020997;28;20048;-79
2023/07/31 08:42:02;;;;;;;6.95;2.40;;;;;;;22.38;74.57;99957.16;5052352;28;20060;-78
2023/07/31 08:44:32;;;;;;;5.95;2.75;;;;;;;22.47;73.44;99959.94;5058549;28;20045;-79
2023/07/31 08:47:02;;;;;;;7.38;2.55;;;;;;;22.64;71.69;99961.72;5041484;28;20044;-79
2023/07/31 08:49:32;;;;;;;6.53;3.10;;;;;;;22.82;70.07;99940.94;5044489;28;20059;-78
2023/07/31 08:51:59;;;;;;;6.65;2.72;;;;;;;23.19;66.28;99964.03;5062034;28;20052;-78
2023/07/31 08:54:30;;;;;;;5.75;2.30;;;;;;;22.58;67.73;99946.16;5053522;28;20471;-79
2023/07/31 08:56:59;;;;;;;4.97;2.38;;;;;;;22.14;70.66;99959.69;5053196;28;20057;-77
2023/07/31 08:59:29;;;;;;;4.65;2.15;;;;;;;22.05;71.80;99972.25;5022463;28;20056;-78
2023/07/31 09:02:07;;;;;;;5.97;2.72;;;;;;;22.19;72.92;99975.41;5035569;28;20075;-77
2023/07/31 09:04:38;;;;;;;8.40;2.60;;;;;;;22.16;72.81;99957.69;5056823;28;20128;-78
2023/07/31 09:07:13;;;;;;;6.38;2.28;;;;;;;21.85;73.66;99965.31;5039925;28;20060;-77
2023/07/31 09:09:46;;;;;;;5.72;2.22;;;;;;;21.84;72.43;99962.78;5044202;28;20101;-78
2023/07/31 09:12:14;;;;;;;6.60;2.33;;;;;;;21.89;73.21;99938.88;5050996;28;20071;-78
2023/07/31 09:14:47;;;;;;;5.25;2.40;;;;;;;21.97;72.91;99941.66;5056349;28;20052;-77
2023/07/31 09:17:15;;;;;;;8.15;2.42;;;;;;;22.02;71.57;99951.00;5050876;28;20190;-77
2023/07/31 09:19:43;;;;;;;9.15;2.78;;;;;;;22.12;72.37;99952.75;5047485;28;20072;-78
2023/07/31 09:22:12;;;;;;;6.88;2.50;;;;;;;22.10;70.95;99958.31;5056824;28;20045;-81
2023/07/31 09:24:41;;;;;;;4.45;2.20;;;;;;;21.97;72.18;99942.50;5057505;28;20037;-79
2023/07/31 09:27:11;;;;;;;8.23;2.67;;;;;;;22.05;73.26;99942.59;5035256;28;20056;-80
2023/07/31 09:29:42;;;;;;;7.72;2.80;;;;;;;21.95;74.78;99940.97;5035196;28;20131;-79
2023/07/31 09:32:17;;;;;;;7.65;2.95;;;;;;;21.89;77.08;99946.97;5063932;28;20390;-77
2023/07/31 09:34:45;;;;;;;7.68;2.65;;;;;;;21.93;74.01;99954.59;5051125;28;20048;-77
2023/07/31 09:37:13;;;;;;;5.80;2.45;;;;;;;22.07;73.34;99944.28;5052722;28;20045;-78
2023/07/31 09:39:48;;;;;;;5.63;2.40;;;;;;;22.14;73.47;99942.66;5023150;28;20095;-78
2023/07/31 09:42:25;;;;;;;5.03;2.67;;;;;;;22.17;70.55;99936.97;5041978;28;20136;-82
2023/07/31 09:44:53;;;;;;;5.90;2.85;;;;;;;22.20;72.65;99947.41;5041231;28;20052;-78
2023/07/31 09:47:24;;;;;;;5.00;2.67;;;;;;;21.97;78.04;99941.66;5038397;28;20692;-79
2023/07/31 09:49:53;;;;;;;5.57;2.15;;;;;;;21.37;83.59;99906.41;5038442;28;20603;-78
2023/07/31 09:52:23;;;;;;;7.38;2.88;;;;;;;21.33;87.06;99942.72;5046329;28;20124;-78
2023/07/31 09:54:51;;;;;;;7.95;3.20;;;;;;;21.37;90.00;99938.72;5039358;28;20036;-78
2023/07/31 09:57:25;;;;;;;5.72;2.47;;;;;;;21.42;84.21;99932.88;5051616;28;20052;-78
2023/07/31 09:59:54;;;;;;;14.02;2.72;;;;;;;21.32;82.07;99931.09;5039490;28;20545;-79
2023/07/31 10:02:23;;;;;;;6.72;2.70;;;;;;;21.46;84.23;99920.78;5054657;28;20052;-78
2023/07/31 10:04:52;;;;;;;7.00;2.78;;;;;;;21.65;80.96;99905.34;5053519;28;20040;-79
2023/07/31 10:07:24;;;;;;;6.47;2.83;;;;;;;22.04;76.82;99896.91;5047703;28;20064;-78
2023/07/31 10:09:53;;;;;;;7.32;3.42;;;;;;;22.15;74.27;99893.13;5019706;28;20048;-78
2023/07/31 10:12:28;;;;;;;6.97;2.65;;;;;;;22.50;71.90;99901.09;5032605;28;20041;-77
2023/07/31 10:14:56;;;;;;;5.55;2.80;;;;;;;22.51;71.17;99831.81;5045389;28;20053;-78
2023/07/31 10:17:24;;;;;;;7.45;2.80;;;;;;;22.95;70.48;99883.78;5052573;28;20126;-79
2023/07/31 10:19:52;;;;;;;7.45;2.72;;;;;;;22.89;66.48;99884.44;5027937;28;20059;-78
2023/07/31 10:22:20;;;;;;;6.80;2.75;;;;;;;22.76;69.42;99890.25;5043641;28;20045;-78
2023/07/31 10:24:49;;;;;;;6.75;3.03;;;;;;;22.91;70.14;99887.81;5051262;28;20087;-79
2023/07/31 10:27:17;;;;;;;6.32;2.95;;;;;;;22.77;66.78;99881.19;5049160;28;20052;-77
2023/07/31 10:29:49;;;;;;;6.60;2.60;;;;;;;22.48;65.96;99865.34;5054159;28;20338;-79
2023/07/31 10:32:19;;;;;;;5.65;2.90;;;;;;;22.12;67.74;99863.78;5034823;28;20057;-78
2023/07/31 10:34:49;;;;;;;8.68;2.97;;;;;;;22.16;67.62;99868.69;5057500;28;20068;-79
2023/07/31 10:37:25;;;;;;;9.70;3.17;;;;;;;22.16;66.45;99832.78;5058347;28;20039;-78
2023/07/31 10:40:01;;;;;;;4.60;2.78;;;;;;;22.24;66.02;99862.50;5032903;28;20057;-80
2023/07/31 10:42:38;;;;;;;4.20;2.45;;;;;;;22.37;67.04;99873.69;5020450;28;20049;-77
2023/07/31 10:45:10;;;;;;;7.07;3.10;;;;;;;22.46;65.72;99834.97;5049472;28;20044;-79
2023/07/31 10:47:39;;;;;;;8.77;3.13;;;;;;;22.73;64.18;99871.69;5056501;28;20051;-80
2023/07/31 10:50:32;;;;;;;5.55;2.90;;;;;;;22.57;64.93;99858.13;5034040;28;20050;-79
2023/07/31 10:53:01;;;;;;;6.20;2.80;;;;;;;22.64;64.97;99865.41;5055102;28;20527;-79
2023/07/31 10:55:32;;;;;;;6.72;3.05;;;;;;;22.89;63.06;99860.13;5042958;28;20099;-79
2023/07/31 10:58:07;;;;;;;9.18;2.80;;;;;;;23.12;63.09;99844.16;5056803;28;20147;-78
2023/07/31 11:00:40;;;;;;;7.30;2.97;;;;;;;23.28;62.17;99847.75;5040801;28;20148;-78
2023/07/31 11:03:10;;;;;;;9.10;3.13;;;;;;;23.31;61.33;99836.59;5038123;28;20124;-78
2023/07/31 11:05:47;;;;;;;5.25;2.63;;;;;;;23.61;61.12;99835.09;5054956;28;20714;-78
2023/07/31 11:08:18;;;;;;;4.97;2.85;;;;;;;23.79;58.08;99846.59;5053685;28;20045;-77
2023/07/31 11:10:48;;;;;;;8.68;3.17;;;;;;;23.88;58.90;99852.00;5040365;28;20047;-78
2023/07/31 11:13:17;;;;;;;6.40;2.95;;;;;;;23.86;56.75;99840.53;5057237;28;20098;-78
2023/07/31 11:15:46;;;;;;;6.28;2.85;;;;;;;23.82;56.48;99839.16;5052623;28;20041;-77
2023/07/31 11:18:16;;;;;;;6.90;2.80;;;;;;;23.80;58.49;99842.03;5051495;28;20040;-77
2023/07/31 11:20:46;;;;;;;7.28;2.83;;;;;;;23.91;58.48;99816.53;5022570;28;20045;-78
2023/07/31 11:23:14;;;;;;;4.63;2.78;;;;;;;23.79;55.71;99846.59;5057443;28;20123;-77
2023/07/31 11:25:42;;;;;;;7.22;3.00;;;;;;;24.05;54.84;99832.91;5056068;28;20042;-78
2023/07/31 11:28:11;;;;;;;6.22;2.85;;;;;;;24.14;53.84;99834.56;5060764;28;20063;-77
2023/07/31 11:30:43;;;;;;;4.75;2.47;;;;;;;23.94;55.03;99824.28;5026492;28;20041;-77
2023/07/31 11:33:15;;;;;;;6.22;2.55;;;;;;;23.70;55.74;99830.56;5033622;28;20062;-77
2023/07/31 11:35:45;;;;;;;6.07;2.90;;;;;;;23.90;55.92;99817.53;5058426;28;20567;-79
2023/07/31 11:38:23;;;;;;;6.55;2.92;;;;;;;23.98;55.58;99814.81;5027389;28;20049;-78